Time;durP1;ratioP1;P1;durP2;ratioP2;P2;SDS_P1;SDS_P2;PMS_P1;PMS_P2;Temp;Humidity;BMP_temperature;BMP_pressure;BME280_temperature;BME280_humidity;BME280_pressure;Samples;Min_cycle;Max_cycle;Signal;HPM_P1;HPM_P2
2021/09/11 00:03:54;;;;;;;12.00;4.78;;;;;;;17.52;69.71;99898.78;10422802;28;20057;-63
2021/09/11 00:08:56;;;;;;;10.45;4.43;;;;;;;17.57;69.61;99903.66;10421230;28;20306;-63
2021/09/11 00:13:58;;;;;;;13.05;5.22;;;;;;;17.45;69.82;99899.44;10404255;28;20059;-64
2021/09/11 00:18:59;;;;;;;12.43;4.45;;;;;;;17.43;70.07;99904.88;10422420;28;20049;-63
2021/09/11 00:24:01;;;;;;;7.13;4.32;;;;;;;17.58;69.98;99905.34;10404897;28;20080;-63
2021/09/11 00:29:03;;;;;;;26.70;7.93;;;;;;;17.65;69.68;99903.78;10416582;28;20103;-63
2021/09/11 00:34:04;;;;;;;12.25;6.63;;;;;;;17.79;69.37;99900.78;10405104;28;20630;-63
2021/09/11 00:39:06;;;;;;;50.80;7.38;;;;;;;17.85;69.07;99893.09;10402165;28;20060;-63
2021/09/11 00:44:08;;;;;;;198.10;8.75;;;;;;;17.84;69.20;99888.81;10399636;28;20052;-63
2021/09/11 00:49:10;;;;;;;137.48;8.00;;;;;;;17.84;69.25;99891.44;10427972;28;20060;-63
2021/09/11 00:54:12;;;;;;;21.27;7.43;;;;;;;17.83;68.93;99884.47;10401700;28;20063;-63
2021/09/11 00:59:13;;;;;;;13.15;5.50;;;;;;;17.79;68.89;99898.13;10391014;28;20060;-63
2021/09/11 01:04:15;;;;;;;35.05;5.57;;;;;;;17.85;68.85;99894.94;10390545;28;20060;-63
2021/09/11 01:09:17;;;;;;;14.02;7.45;;;;;;;17.83;68.43;99896.88;10411255;28;20061;-63
2021/09/11 01:14:18;;;;;;;16.17;5.15;;;;;;;17.69;68.81;99905.19;10401681;28;20052;-63
2021/09/11 01:19:20;;;;;;;16.33;6.00;;;;;;;17.62;69.32;99904.09;10411548;28;20813;-63
2021/09/11 01:24:22;;;;;;;13.13;4.93;;;;;;;17.76;69.44;99912.47;10411140;28;20053;-63
2021/09/11 01:29:24;;;;;;;30.02;10.55;;;;;;;17.79;69.22;99898.94;10413916;28;20428;-63
2021/09/11 01:34:25;;;;;;;114.80;13.00;;;;;;;17.81;68.90;99901.47;10426057;28;20085;-63
2021/09/11 01:39:27;;;;;;;644.92;23.35;;;;;;;17.68;69.16;99909.69;10413744;28;20045;-63
2021/09/11 01:44:29;;;;;;;84.25;11.68;;;;;;;17.45;69.71;99913.50;10422539;28;20051;-63
2021/09/11 01:49:30;;;;;;;23.95;8.95;;;;;;;17.34;69.74;99905.72;10422042;28;20060;-63
2021/09/11 01:54:32;;;;;;;9.85;6.93;;;;;;;17.28;70.11;99903.53;10407791;28;20053;-63
2021/09/11 01:59:35;;;;;;;16.42;5.68;;;;;;;17.34;69.76;99913.66;10409534;28;20060;-63
2021/09/11 02:04:37;;;;;;;10.13;6.38;;;;;;;17.46;69.70;99899.34;10430699;28;20063;-63
2021/09/11 02:09:38;;;;;;;24.40;10.45;;;;;;;17.51;69.63;99902.41;10416816;28;20099;-63
2021/09/11 02:14:40;;;;;;;12.45;6.60;;;;;;;17.48;69.60;99904.47;10395235;28;20049;-63
2021/09/11 02:19:42;;;;;;;37.03;8.00;;;;;;;17.49;69.49;99899.06;10418534;28;20192;-63
2021/09/11 02:24:44;;;;;;;17.05;8.23;;;;;;;17.61;69.55;99895.31;10395098;28;20140;-63
2021/09/11 02:29:45;;;;;;;26.50;8.77;;;;;;;17.69;68.98;99908.69;10421069;28;20057;-63
2021/09/11 02:34:47;;;;;;;659.22;25.33;;;;;;;17.62;68.94;99898.81;10434418;28;20045;-63
2021/09/11 02:39:49;;;;;;;308.63;19.38;;;;;;;17.39;69.53;99900.84;10418602;28;20416;-63
2021/09/11 02:44:51;;;;;;;93.68;5.57;;;;;;;17.23;69.85;99905.78;10423883;28;20512;-63
2021/09/11 02:49:52;;;;;;;15.30;4.85;;;;;;;17.31;69.86;99907.72;10397164;28;20306;-63
2021/09/11 02:54:54;;;;;;;15.27;5.57;;;;;;;17.46;69.90;99901.97;10420133;28;20135;-63
2021/09/11 02:59:56;;;;;;;11.23;4.88;;;;;;;17.52;69.76;99906.72;10419073;28;20449;-63
2021/09/11 03:04:57;;;;;;;16.15;6.28;;;;;;;17.57;69.89;99907.13;10390113;28;20053;-63
2021/09/11 03:09:59;;;;;;;16.35;5.95;;;;;;;17.59;69.70;99917.56;10427199;28;20055;-63
2021/09/11 03:15:01;;;;;;;8.73;5.47;;;;;;;17.56;69.67;99905.47;10402719;28;20267;-63
2021/09/11 03:20:03;;;;;;;16.90;7.03;;;;;;;17.64;69.76;99897.69;10418929;28;20418;-63
2021/09/11 03:25:05;;;;;;;11.07;6.10;;;;;;;17.61;69.68;99897.97;10419351;28;20436;-63
2021/09/11 03:30:08;;;;;;;12.30;6.30;;;;;;;17.54;70.03;99909.22;10401883;28;20148;-63
2021/09/11 03:35:10;;;;;;;10.02;6.25;;;;;;;17.37;70.45;99905.44;10421601;28;20053;-63
2021/09/11 03:40:12;;;;;;;17.60;8.52;;;;;;;17.37;70.56;99905.44;10424505;28;20049;-63
2021/09/11 03:45:13;;;;;;;8.80;5.95;;;;;;;17.31;70.33;99907.72;10411338;28;20497;-63
2021/09/11 03:50:15;;;;;;;15.68;6.93;;;;;;;17.32;70.79;99899.69;10415146;28;20059;-63
2021/09/11 03:55:17;;;;;;;16.63;8.32;;;;;;;17.50;70.48;99905.19;10407374;28;20163;-63
2021/09/11 04:00:19;;;;;;;17.95;7.93;;;;;;;17.60;70.13;99903.38;10415625;28;20053;-63
2021/09/11 04:05:20;;;;;;;39.28;9.20;;;;;;;17.66;69.82;99901.03;10391416;28;20474;-63
2021/09/11 04:10:22;;;;;;;21.17;6.97;;;;;;;17.71;69.37;99911.19;10399690;28;20151;-63
2021/09/11 04:15:24;;;;;;;601.78;22.60;;;;;;;17.65;69.31;99912.56;10400549;28;20049;-63
2021/09/11 04:20:26;;;;;;;12.93;5.13;;;;;;;17.49;69.57;99906.97;10396341;28;20058;-63
2021/09/11 04:25:27;;;;;;;13.13;7.38;;;;;;;17.50;69.69;99913.13;10397388;28;20046;-63
2021/09/11 04:30:29;;;;;;;16.00;6.32;;;;;;;17.50;69.60;99906.03;10396321;28;20061;-63
2021/09/11 04:35:31;;;;;;;11.85;7.35;;;;;;;17.61;69.72;99910.34;10398440;28;20053;-63
2021/09/11 04:40:32;;;;;;;36.28;6.70;;;;;;;17.73;69.70;99912.72;10413040;28;20078;-63
2021/09/11 04:45:34;;;;;;;31.33;11.80;;;;;;;17.75;69.34;99902.84;10429401;28;20076;-63
2021/09/11 04:50:36;;;;;;;50.92;8.60;;;;;;;17.57;69.73;99899.19;10430954;28;20085;-63
2021/09/11 04:55:38;;;;;;;14.32;7.22;;;;;;;17.61;69.44;99911.19;10430160;28;20443;-63
2021/09/11 05:00:40;;;;;;;18.00;6.18;;;;;;;17.66;69.45;99901.03;10426025;28;20056;-63
2021/09/11 05:05:41;;;;;;;19.55;8.13;;;;;;;17.67;69.01;99902.69;10409616;28;20048;-63
2021/09/11 05:10:45;;;;;;;20.65;8.25;;;;;;;17.65;69.18;99907.28;10391425;28;20061;-63
2021/09/11 05:15:48;;;;;;;24.05;7.40;;;;;;;17.65;69.35;99907.28;10405287;28;20053;-63
2021/09/11 05:20:49;;;;;;;302.70;14.85;;;;;;;17.64;69.11;99910.06;10397277;28;20048;-63
2021/09/11 05:25:51;;;;;;;70.47;9.40;;;;;;;17.62;69.02;99918.16;10405210;28;20163;-63
2021/09/11 05:30:53;;;;;;;460.92;17.40;;;;;;;17.60;69.52;99922.75;10391584;28;20149;-63
2021/09/11 05:35:55;;;;;;;130.38;12.75;;;;;;;17.61;69.52;99919.13;10402837;28;20045;-63
2021/09/11 05:40:57;;;;;;;21.83;7.95;;;;;;;17.71;69.44;99921.75;10395194;28;20457;-64
2021/09/11 05:45:58;;;;;;;19.38;6.55;;;;;;;17.99;69.04;99920.13;10392111;28;20619;-63
2021/09/11 05:51:01;;;;;;;18.83;7.85;;;;;;;18.07;68.46;99934.34;10398018;28;20111;-63
2021/09/11 05:56:03;;;;;;;17.95;8.05;;;;;;;18.09;68.66;99942.16;10412188;28;20324;-63
2021/09/11 06:01:05;;;;;;;11.75;5.93;;;;;;;18.17;68.41;99940.47;10396292;28;20053;-64
2021/09/11 06:06:07;;;;;;;11.60;5.57;;;;;;;18.26;68.45;99944.97;10410310;28;20262;-63
2021/09/11 06:11:09;;;;;;;17.70;8.25;;;;;;;18.36;68.28;99944.97;10399536;28;20145;-64
2021/09/11 06:16:11;;;;;;;11.35;6.43;;;;;;;18.42;67.82;99955.00;10414304;28;20053;-64
2021/09/11 06:21:13;;;;;;;12.85;6.88;;;;;;;18.54;68.02;99953.88;10394242;28;20148;-64
2021/09/11 06:26:15;;;;;;;18.02;7.55;;;;;;;18.52;67.71;99951.34;10412675;28;20417;-63
2021/09/11 06:31:16;;;;;;;16.75;9.25;;;;;;;18.44;68.20;99956.50;10412109;28;20057;-63
2021/09/11 06:36:18;;;;;;;13.45;7.53;;;;;;;18.50;68.31;99963.06;10405686;28;20091;-64
2021/09/11 06:41:20;;;;;;;14.70;8.05;;;;;;;18.65;68.42;99962.47;10407188;28;20128;-63
2021/09/11 06:46:21;;;;;;;11.65;6.07;;;;;;;18.80;67.83;99962.88;10406584;28;20056;-64
2021/09/11 06:51:23;;;;;;;12.23;5.75;;;;;;;18.87;67.91;99961.31;10411054;28;20057;-63
2021/09/11 06:56:25;;;;;;;18.80;6.15;;;;;;;19.03;67.64;99952.81;10388252;28;20425;-63
2021/09/11 07:01:27;;;;;;;10.75;5.78;;;;;;;19.09;67.33;99955.72;10423474;28;20053;-63
2021/09/11 07:06:30;;;;;;;18.52;8.25;;;;;;;19.25;67.23;99963.03;10394047;28;20858;-63
2021/09/11 07:11:32;;;;;;;10.95;5.40;;;;;;;19.36;67.15;99962.84;10410403;28;20416;-63
2021/09/11 07:16:33;;;;;;;8.68;5.43;;;;;;;19.38;67.24;99966.19;10423216;28;20053;-63
2021/09/11 07:21:35;;;;;;;19.73;5.93;;;;;;;19.37;66.97;99970.69;10408234;28;20163;-63
2021/09/11 07:26:37;;;;;;;9.73;5.20;;;;;;;19.13;67.64;99972.16;10394809;28;20048;-64
2021/09/11 07:31:38;;;;;;;10.75;5.28;;;;;;;19.20;67.46;99978.53;10381629;28;20063;-64
2021/09/11 07:36:40;;;;;;;14.27;5.63;;;;;;;19.42;67.17;99973.72;10385560;28;20045;-63
2021/09/11 07:41:42;;;;;;;11.43;6.05;;;;;;;19.91;66.35;99983.09;10400345;28;21401;-63
2021/09/11 07:46:44;;;;;;;33.17;5.75;;;;;;;20.29;65.39;99982.00;10397450;28;20083;-63
2021/09/11 07:51:46;;;;;;;9.30;5.90;;;;;;;20.41;64.97;99983.44;10415927;28;20458;-63
2021/09/11 07:56:47;;;;;;;8.32;5.07;;;;;;;20.66;64.21;99992.47;10393021;28;20083;-64
2021/09/11 08:01:49;;;;;;;9.75;4.32;;;;;;;21.11;63.01;99994.94;10382177;28;20059;-65
2021/09/11 08:06:51;;;;;;;8.77;4.60;;;;;;;21.49;62.14;99991.84;10381613;28;20053;-64
2021/09/11 08:11:53;;;;;;;9.05;3.25;;;;;;;21.49;59.95;99995.34;10408260;28;20395;-63
2021/09/11 08:16:54;;;;;;;6.53;3.50;;;;;;;21.70;59.27;100002.94;10386222;28;20055;-64
2021/09/11 08:21:56;;;;;;;7.25;3.65;;;;;;;21.61;59.18;100006.53;10409015;28;20061;-64
2021/09/11 08:26:58;;;;;;;8.98;4.03;;;;;;;21.62;59.41;100010.88;10392438;28;20048;-64
2021/09/11 08:31:59;;;;;;;7.40;4.22;;;;;;;21.65;60.05;100014.06;10405903;28;20053;-64
2021/09/11 08:37:01;;;;;;;6.80;4.00;;;;;;;22.02;59.28;100027.00;10401133;28;20062;-64
2021/09/11 08:42:03;;;;;;;6.38;3.83;;;;;;;22.39;57.43;100030.06;10412254;28;20143;-64
2021/09/11 08:47:06;;;;;;;9.02;3.90;;;;;;;22.59;56.69;100028.78;10406951;28;20049;-64
2021/09/11 08:52:08;;;;;;;7.95;4.45;;;;;;;22.60;55.56;100033.09;10408544;28;20508;-70
2021/09/11 08:57:24;;;;;;;8.82;4.07;;;;;;;22.51;55.22;100039.44;10401606;28;20081;-71
2021/09/11 09:02:26;;;;;;;9.18;4.70;;;;;;;22.42;56.43;100044.91;10429386;28;20181;-70
2021/09/11 09:07:40;;;;;;;7.95;4.50;;;;;;;22.01;56.91;100045.78;10413885;28;20049;-70
2021/09/11 09:12:49;;;;;;;7.38;3.92;;;;;;;21.88;56.53;100046.25;10387519;28;20122;-70
2021/09/11 09:17:52;;;;;;;;;;;;;;;21.60;58.27;100052.75;10408025;28;20235;-70
2021/09/11 09:22:59;;;;;;;8.63;4.45;;;;;;;22.09;56.94;100043.19;10429315;28;19924;-71
2021/09/11 09:28:12;;;;;;;15.98;5.32;;;;;;;22.28;54.70;100027.75;10409027;28;20422;-70
2021/09/11 09:33:21;;;;;;;7.85;3.75;;;;;;;22.74;54.05;100034.28;10406667;28;20311;-69
2021/09/11 09:38:23;;;;;;;12.35;4.22;;;;;;;22.61;55.59;100040.13;10409008;28;20480;-69
2021/09/11 09:43:30;;;;;;;7.97;4.00;;;;;;;22.41;55.60;100037.94;10406529;28;20080;-69
2021/09/11 09:48:34;;;;;;;14.45;4.28;;;;;;;22.61;55.28;100037.44;10406327;28;20593;-69
2021/09/11 09:53:37;;;;;;;11.70;4.20;;;;;;;22.82;53.70;100022.81;10389934;28;20076;-69
2021/09/11 09:58:39;;;;;;;4.60;3.65;;;;;;;22.56;54.23;100023.78;10392134;28;20559;-69
2021/09/11 10:03:41;;;;;;;6.03;3.78;;;;;;;22.87;55.29;100018.63;10421910;28;20053;-69
2021/09/11 10:08:50;;;;;;;8.98;3.60;;;;;;;23.08;53.89;100018.13;10399652;28;20064;-70
2021/09/11 10:14:01;;;;;;;6.93;3.42;;;;;;;22.82;51.74;100014.81;10405993;28;20191;-69
2021/09/11 10:19:18;;;;;;;6.03;2.80;;;;;;;22.66;51.92;100010.28;10421504;28;20055;-70
2021/09/11 10:24:23;;;;;;;8.75;2.85;;;;;;;22.80;54.11;100011.47;10392262;28;20053;-69
2021/09/11 10:29:37;;;;;;;6.25;3.20;;;;;;;23.61;51.42;100009.47;10393110;28;20061;-70
2021/09/11 10:34:56;;;;;;;5.93;2.80;;;;;;;23.86;50.58;99993.16;10400441;28;20060;-70
2021/09/11 10:40:18;;;;;;;4.78;2.80;;;;;;;24.25;50.13;99990.44;10402957;28;20049;-70
2021/09/11 10:45:42;;;;;;;4.50;2.30;;;;;;;24.06;49.98;99988.22;10407216;28;20076;-69
2021/09/11 10:50:48;;;;;;;4.68;2.70;;;;;;;24.00;50.03;99981.72;10390689;28;20509;-70
2021/09/11 10:55:50;;;;;;;5.07;2.78;;;;;;;24.06;49.21;99982.88;10396403;28;20144;-70
2021/09/11 11:01:10;;;;;;;6.95;2.97;;;;;;;24.33;48.25;99984.25;10392846;28;20075;-69
2021/09/11 11:06:16;;;;;;;5.15;2.40;;;;;;;24.66;48.64;99983.78;10409518;28;20456;-69
2021/09/11 11:11:18;;;;;;;5.57;2.50;;;;;;;24.75;48.33;99981.91;10416977;28;20143;-69
2021/09/11 11:16:20;;;;;;;6.78;2.67;;;;;;;24.08;51.24;99972.88;10414390;28;20563;-70
2021/09/11 11:21:22;;;;;;;6.22;2.95;;;;;;;24.03;52.02;99980.56;10398691;28;20420;-69
2021/09/11 11:26:24;;;;;;;11.52;3.08;;;;;;;23.87;50.83;99975.31;10389819;28;20703;-70
2021/09/11 11:31:26;;;;;;;5.35;2.60;;;;;;;24.01;51.05;99980.72;10396425;28;20316;-70
2021/09/11 11:36:28;;;;;;;5.22;2.30;;;;;;;24.03;50.51;99970.69;10384732;28;20075;-70
2021/09/11 11:41:30;;;;;;;3.55;2.03;;;;;;;24.01;48.85;99975.38;10394327;28;20052;-69
2021/09/11 11:46:33;;;;;;;10.13;2.65;;;;;;;23.78;48.80;99969.16;10403554;28;20501;-69
2021/09/11 11:51:35;;;;;;;7.00;2.00;;;;;;;24.02;48.36;99970.88;10391601;28;20208;-70
2021/09/11 11:56:50;;;;;;;13.45;2.58;;;;;;;24.19;47.12;99970.63;10393124;28;20055;-68
2021/09/11 12:01:52;;;;;;;5.00;1.92;;;;;;;24.35;46.58;99963.50;10390182;28;20059;-68
2021/09/11 12:06:54;;;;;;;12.30;2.40;;;;;;;24.35;48.94;99961.63;10404257;28;20315;-68
2021/09/11 12:12:03;;;;;;;3.70;2.00;;;;;;;24.23;48.50;99955.06;10408419;28;20060;-67
2021/09/11 12:17:13;;;;;;;9.13;2.40;;;;;;;24.00;50.18;99944.31;10380547;28;20524;-68
2021/09/11 12:22:22;;;;;;;9.48;2.65;;;;;;;24.24;50.11;99946.88;10383131;28;20472;-68
2021/09/11 12:27:26;;;;;;;;;;;;;;;24.31;49.43;99943.50;10388995;28;20524;-68
2021/09/11 12:32:28;;;;;;;7.15;2.20;;;;;;;24.62;47.69;99944.19;10384237;28;19925;-68
2021/09/11 12:37:30;;;;;;;5.82;2.00;;;;;;;24.49;47.74;99934.13;10392998;28;20055;-68
2021/09/11 12:42:31;;;;;;;4.03;2.00;;;;;;;24.51;47.59;99932.09;10390344;28;20056;-67
2021/09/11 12:47:33;;;;;;;4.65;2.10;;;;;;;24.69;47.56;99934.47;10419248;28;20575;-68
2021/09/11 12:52:35;;;;;;;4.53;2.33;;;;;;;25.11;46.23;99934.69;10414692;28;20059;-68
2021/09/11 12:57:36;;;;;;;4.47;2.10;;;;;;;24.56;46.64;99934.22;10390656;28;20073;-68
2021/09/11 13:02:38;;;;;;;3.95;2.00;;;;;;;23.82;47.22;99937.63;10384836;28;20399;-67
2021/09/11 13:07:40;;;;;;;5.47;2.40;;;;;;;23.54;47.00;99945.25;10389547;28;20165;-67
2021/09/11 13:12:42;;;;;;;5.75;2.00;;;;;;;23.90;46.68;99938.38;10389563;28;20156;-67
2021/09/11 13:17:44;;;;;;;6.68;2.00;;;;;;;24.26;46.31;99936.84;10389366;28;20064;-68
2021/09/11 13:22:49;;;;;;;3.92;1.90;;;;;;;24.58;44.64;99937.56;10402201;28;20052;-67
2021/09/11 13:27:51;;;;;;;5.05;1.95;;;;;;;24.52;44.81;99932.94;10375652;28;20046;-67
2021/09/11 13:32:53;;;;;;;6.60;1.88;;;;;;;24.56;45.32;99928.88;10366478;28;20057;-68
2021/09/11 13:37:56;;;;;;;3.78;1.88;;;;;;;24.82;45.40;99918.63;10363702;28;20053;-68
2021/09/11 13:42:58;;;;;;;13.52;2.67;;;;;;;25.01;44.39;99908.22;10370424;28;20057;-68
2021/09/11 13:48:20;;;;;;;3.90;1.90;;;;;;;24.99;44.64;99914.78;10397989;28;20045;-68
2021/09/11 13:53:22;;;;;;;3.83;2.13;;;;;;;24.62;44.62;99912.13;10409623;28;20544;-69
2021/09/11 13:58:23;;;;;;;4.53;2.30;;;;;;;23.99;45.88;99918.63;10425936;28;20063;-69
2021/09/11 14:03:25;;;;;;;5.00;2.10;;;;;;;23.93;46.67;99923.84;10400486;28;20067;-67
2021/09/11 14:08:27;;;;;;;5.20;2.42;;;;;;;24.23;45.60;99913.13;10399114;28;20365;-68
2021/09/11 14:13:29;;;;;;;7.25;2.25;;;;;;;24.42;45.56;99919.00;10411509;28;20063;-68
2021/09/11 14:18:31;;;;;;;5.85;2.10;;;;;;;24.65;45.05;99922.47;10397653;28;20106;-68
2021/09/11 14:23:33;;;;;;;3.97;2.25;;;;;;;24.23;45.74;99909.63;10414769;28;20059;-68
2021/09/11 14:28:35;;;;;;;4.65;2.00;;;;;;;23.99;46.01;99915.97;10394513;28;20053;-67
2021/09/11 14:33:36;;;;;;;6.25;2.60;;;;;;;24.47;45.96;99906.72;10403399;28;20050;-68
2021/09/11 14:38:38;;;;;;;3.83;2.25;;;;;;;24.81;44.78;99920.50;10392859;28;20057;-68
2021/09/11 14:43:40;;;;;;;3.85;2.08;;;;;;;25.02;43.11;99907.19;10400325;28;20072;-68
2021/09/11 14:48:42;;;;;;;3.63;2.17;;;;;;;24.53;44.60;99918.56;10399123;28;20054;-68
2021/09/11 14:53:43;;;;;;;6.38;2.20;;;;;;;24.29;46.40;99920.44;10395435;28;20059;-68
2021/09/11 14:58:49;;;;;;;3.42;2.20;;;;;;;24.04;46.13;99918.09;10395470;28;20053;-68
2021/09/11 15:03:50;;;;;;;5.07;2.35;;;;;;;24.16;46.63;99914.84;10393326;28;20297;-67
2021/09/11 15:08:52;;;;;;;7.55;2.55;;;;;;;24.20;46.70;99918.84;10394001;28;20053;-68
2021/09/11 15:13:54;;;;;;;5.40;2.38;;;;;;;24.07;46.23;99909.75;10406705;28;20056;-68
2021/09/11 15:18:56;;;;;;;4.25;2.28;;;;;;;23.83;46.26;99918.75;10418433;28;20067;-68
2021/09/11 15:23:58;;;;;;;5.35;2.47;;;;;;;24.04;46.43;99915.44;10390494;28;20509;-68
2021/09/11 15:28:59;;;;;;;5.03;2.20;;;;;;;24.49;45.31;99925.28;10384295;28;20057;-68
2021/09/11 15:34:01;;;;;;;7.40;2.10;;;;;;;24.41;45.11;99920.00;10388298;28;20052;-68
2021/09/11 15:39:03;;;;;;;7.75;2.22;;;;;;;23.96;46.08;99918.16;10386492;28;20414;-68
2021/09/11 15:44:04;;;;;;;6.68;2.30;;;;;;;23.67;45.85;99924.19;10379043;28;20056;-67
2021/09/11 15:49:07;;;;;;;16.73;3.13;;;;;;;23.39;46.04;99931.78;10387366;28;20120;-68
2021/09/11 15:54:08;;;;;;;7.15;2.40;;;;;;;23.22;47.33;99932.88;10393961;28;20509;-68
2021/09/11 15:59:10;;;;;;;8.32;2.25;;;;;;;23.05;47.04;99925.91;10389998;28;20148;-67
2021/09/11 16:04:13;;;;;;;13.30;2.60;;;;;;;22.93;47.91;99926.44;10383835;28;20798;-68
2021/09/11 16:09:14;;;;;;;5.45;2.10;;;;;;;22.77;48.41;99937.16;10411576;28;20048;-68
2021/09/11 16:14:16;;;;;;;6.55;2.30;;;;;;;22.75;48.67;99944.47;10399115;28;20608;-68
2021/09/11 16:19:18;;;;;;;8.35;2.05;;;;;;;22.73;48.29;99938.44;10427081;28;20053;-68
2021/09/11 16:24:20;;;;;;;9.00;2.58;;;;;;;22.57;48.90;99942.81;10422977;28;20049;-68
2021/09/11 16:29:22;;;;;;;7.40;2.20;;;;;;;22.37;48.59;99952.13;10413994;28;20401;-68
2021/09/11 16:34:24;;;;;;;6.40;2.42;;;;;;;22.13;48.48;99952.13;10396620;28;20440;-68
2021/09/11 16:39:26;;;;;;;7.20;2.45;;;;;;;21.92;48.51;99960.53;10393637;28;20149;-68
2021/09/11 16:44:28;;;;;;;4.00;2.10;;;;;;;21.83;49.57;99948.22;10408649;28;20057;-68
2021/09/11 16:49:29;;;;;;;5.22;2.40;;;;;;;21.65;49.71;99949.31;10399136;28;20052;-68
2021/09/11 16:54:31;;;;;;;4.03;2.10;;;;;;;21.64;49.80;99953.00;10389913;28;20049;-68
2021/09/11 16:59:34;;;;;;;4.18;2.25;;;;;;;21.55;50.31;99965.44;10422310;28;20056;-68
2021/09/11 17:04:36;;;;;;;6.53;2.45;;;;;;;21.47;50.71;99962.75;10404084;28;20304;-68
2021/09/11 17:09:38;;;;;;;4.55;2.20;;;;;;;21.36;51.47;99964.84;10391278;28;20064;-67
2021/09/11 17:14:40;;;;;;;3.67;2.17;;;;;;;21.28;52.83;99973.59;10415796;28;20053;-68
2021/09/11 17:19:41;;;;;;;6.53;2.45;;;;;;;21.27;53.98;99971.09;10394037;28;20421;-68
2021/09/11 17:24:43;;;;;;;12.98;2.75;;;;;;;21.07;54.53;99975.78;10384927;28;20057;-68
2021/09/11 17:29:46;;;;;;;4.68;2.60;;;;;;;20.98;54.64;99966.97;10389209;28;20309;-68
2021/09/11 17:34:48;;;;;;;6.13;2.65;;;;;;;20.96;55.00;99970.75;10383056;28;20046;-68
2021/09/11 17:39:49;;;;;;;6.78;2.50;;;;;;;20.91;55.08;99970.38;10390116;28;20057;-68
2021/09/11 17:44:51;;;;;;;11.23;3.03;;;;;;;20.79;56.12;99976.94;10408214;28;20049;-68
2021/09/11 17:49:53;;;;;;;5.75;2.80;;;;;;;20.71;56.48;99974.22;10386598;28;20124;-65
2021/09/11 17:54:54;;;;;;;6.13;2.63;;;;;;;20.65;55.93;99977.50;10386527;28;20050;-65
2021/09/11 17:59:56;;;;;;;10.10;2.60;;;;;;;20.54;56.28;99977.72;10420160;28;20049;-65
2021/09/11 18:05:00;;;;;;;10.75;2.60;;;;;;;20.33;57.01;99986.03;10408098;28;20064;-66
2021/09/11 18:10:03;;;;;;;6.45;2.90;;;;;;;20.08;57.57;99992.06;10387720;28;20065;-65
2021/09/11 18:15:05;;;;;;;10.90;3.10;;;;;;;19.96;58.31;99995.94;10406690;28;20081;-65
2021/09/11 18:20:09;;;;;;;8.75;3.20;;;;;;;19.78;58.90;100005.66;10390284;28;20421;-65
2021/09/11 18:25:11;;;;;;;10.57;3.33;;;;;;;19.58;59.67;100009.38;10417844;28;20049;-65
2021/09/11 18:30:13;;;;;;;6.03;3.08;;;;;;;19.40;60.13;100028.72;10421217;28;20187;-65
2021/09/11 18:35:14;;;;;;;8.82;4.10;;;;;;;19.24;60.78;100023.19;10424663;28;20519;-65
2021/09/11 18:40:16;;;;;;;11.10;3.58;;;;;;;19.05;61.11;100028.56;10395908;28;20578;-65
2021/09/11 18:45:18;;;;;;;7.07;3.28;;;;;;;18.87;61.52;100034.69;10410501;28;20508;-64
2021/09/11 18:50:21;;;;;;;7.20;3.60;;;;;;;18.78;61.63;100038.19;10393361;28;20056;-65
2021/09/11 18:55:23;;;;;;;5.95;3.55;;;;;;;18.60;62.36;100043.38;10393880;28;20053;-65
2021/09/11 19:00:24;;;;;;;13.05;3.55;;;;;;;18.48;62.35;100050.59;10410381;28;20059;-65
2021/09/11 19:05:28;;;;;;;8.77;3.97;;;;;;;18.42;62.46;100055.63;10406285;28;20059;-64
2021/09/11 19:10:30;;;;;;;13.30;3.80;;;;;;;18.23;63.00;100052.94;10386981;28;20067;-65
2021/09/11 19:15:32;;;;;;;11.07;4.00;;;;;;;18.11;63.41;100054.00;10397046;28;20301;-65
2021/09/11 19:20:34;;;;;;;7.90;3.65;;;;;;;17.99;63.63;100063.88;10416406;28;20057;-65
2021/09/11 19:25:35;;;;;;;7.53;4.40;;;;;;;17.94;63.85;100066.09;10423266;28;20054;-65
2021/09/11 19:30:37;;;;;;;8.45;4.00;;;;;;;17.82;64.03;100068.00;10414987;28;20057;-65
2021/09/11 19:35:39;;;;;;;14.82;4.25;;;;;;;17.68;64.20;100072.81;10415162;28;20052;-65
2021/09/11 19:40:41;;;;;;;11.23;4.30;;;;;;;17.67;64.00;100074.63;10420395;28;20064;-65
2021/09/11 19:45:45;;;;;;;13.20;4.53;;;;;;;17.61;64.20;100069.03;10402708;28;20118;-65
2021/09/11 19:50:46;;;;;;;7.85;3.88;;;;;;;17.47;64.37;100080.78;10389564;28;20072;-65
2021/09/11 19:55:48;;;;;;;8.70;3.70;;;;;;;17.45;64.48;100081.88;10411778;28;20906;-65
2021/09/11 20:00:51;;;;;;;9.85;4.30;;;;;;;17.35;65.10;100087.13;10421378;28;20059;-65
2021/09/11 20:05:53;;;;;;;11.20;3.85;;;;;;;17.32;65.34;100084.75;10405627;28;20065;-65
2021/09/11 20:10:57;;;;;;;9.45;5.03;;;;;;;17.31;65.14;100090.97;10418291;28;20092;-65
2021/09/11 20:15:58;;;;;;;9.02;4.28;;;;;;;17.13;65.06;100092.53;10408222;28;20706;-65
2021/09/11 20:21:01;;;;;;;8.68;4.53;;;;;;;16.96;65.41;100095.75;10406830;28;20140;-65
2021/09/11 20:26:03;;;;;;;9.25;4.70;;;;;;;16.78;65.84;100097.28;10411418;28;20071;-65
2021/09/11 20:31:05;;;;;;;13.93;4.75;;;;;;;16.56;66.34;100084.16;10415286;28;20084;-65
2021/09/11 20:36:08;;;;;;;8.50;4.70;;;;;;;16.57;66.55;100097.22;10414043;28;20053;-65
2021/09/11 20:41:09;;;;;;;14.93;5.00;;;;;;;16.66;66.43;100095.66;10403364;28;20520;-65
2021/09/11 20:46:12;;;;;;;9.55;3.60;;;;;;;16.76;66.20;100096.56;10403804;28;20045;-65
2021/09/11 20:51:14;;;;;;;7.75;3.80;;;;;;;16.73;65.71;100102.13;10408942;28;20119;-65
2021/09/11 20:56:16;;;;;;;9.05;4.10;;;;;;;16.63;65.63;100102.00;10410230;28;20049;-65
2021/09/11 21:01:19;;;;;;;6.20;3.83;;;;;;;16.60;65.72;100104.91;10406976;28;20049;-65
2021/09/11 21:06:22;;;;;;;19.67;4.80;;;;;;;16.62;65.64;100104.78;10401793;28;20045;-65
2021/09/11 21:11:23;;;;;;;10.43;4.35;;;;;;;16.50;65.81;100108.44;10422543;28;20063;-65
2021/09/11 21:16:25;;;;;;;7.72;4.57;;;;;;;16.50;65.54;100111.91;10410180;28;20573;-65
2021/09/11 21:21:27;;;;;;;15.52;5.05;;;;;;;16.30;65.58;100114.44;10426114;28;20064;-65
2021/09/11 21:26:29;;;;;;;9.35;3.95;;;;;;;15.97;66.29;100123.25;10406180;28;20053;-65
2021/09/11 21:31:30;;;;;;;11.63;4.10;;;;;;;15.96;66.58;100118.91;10427338;28;20055;-65
2021/09/11 21:36:32;;;;;;;12.45;4.57;;;;;;;16.06;66.27;100135.72;10405455;28;20152;-65
2021/09/11 21:41:34;;;;;;;9.93;4.85;;;;;;;16.05;66.25;100129.59;10410313;28;20060;-65
2021/09/11 21:46:35;;;;;;;16.85;5.50;;;;;;;16.08;66.37;100134.63;10425974;28;20067;-65
2021/09/11 21:51:37;;;;;;;11.77;4.90;;;;;;;16.07;66.05;100132.97;10401661;28;20489;-66
2021/09/11 21:56:43;;;;;;;11.60;4.57;;;;;;;15.94;66.45;100140.16;10394131;28;20048;-66
2021/09/11 22:01:45;;;;;;;15.77;5.25;;;;;;;15.94;66.19;100139.31;10413043;28;20522;-66
2021/09/11 22:06:48;;;;;;;8.25;4.90;;;;;;;15.88;66.37;100142.41;10393459;28;20670;-66
2021/09/11 22:11:49;;;;;;;11.35;5.80;;;;;;;15.63;66.57;100142.66;10413408;28;20057;-65
2021/09/11 22:16:51;;;;;;;12.52;5.07;;;;;;;15.57;66.95;100140.50;10410124;28;20059;-65
2021/09/11 22:21:53;;;;;;;29.25;5.60;;;;;;;15.51;67.01;100136.53;10391705;28;20128;-65
2021/09/11 22:26:55;;;;;;;20.20;5.22;;;;;;;15.50;67.23;100145.41;10416452;28;20132;-65
2021/09/11 22:31:56;;;;;;;10.25;4.97;;;;;;;15.43;67.16;100137.09;10399966;28;20506;-65
2021/09/11 22:36:58;;;;;;;8.43;4.72;;;;;;;15.55;66.89;100137.97;10388056;28;20160;-65
2021/09/11 22:42:00;;;;;;;19.02;4.70;;;;;;;15.55;66.97;100142.41;10414826;28;20049;-65
2021/09/11 22:47:01;;;;;;;13.95;4.53;;;;;;;15.53;66.64;100153.06;10402440;28;20421;-65
2021/09/11 22:52:03;;;;;;;9.68;4.60;;;;;;;15.52;66.48;100138.22;10408662;28;20533;-65
2021/09/11 22:57:05;;;;;;;10.70;5.00;;;;;;;15.48;66.43;100144.66;10414374;28;20499;-65
2021/09/11 23:02:07;;;;;;;16.90;4.88;;;;;;;15.43;66.44;100145.00;10414384;28;20084;-65
2021/09/11 23:07:09;;;;;;;10.15;4.60;;;;;;;15.28;66.72;100145.31;10389531;28;20512;-65
2021/09/11 23:12:13;;;;;;;15.27;4.65;;;;;;;15.21;67.25;100147.59;10412556;28;20048;-65
2021/09/11 23:17:15;;;;;;;14.13;4.55;;;;;;;15.30;66.77;100149.53;10405947;28;20053;-65